createdAt,value
2023-10-25T00:01:07.205Z,13.38
2023-10-25T00:03:36.508Z,13.38
2023-10-25T00:06:04.570Z,13.37
2023-10-25T00:08:32.540Z,13.37
2023-10-25T00:11:09.438Z,13.36
2023-10-25T00:13:37.672Z,13.35
2023-10-25T00:16:05.814Z,13.35
2023-10-25T00:18:33.902Z,13.34
2023-10-25T00:21:01.823Z,13.32
2023-10-25T00:23:29.795Z,13.32
2023-10-25T00:25:57.780Z,13.30
2023-10-25T00:28:25.861Z,13.28
2023-10-25T00:30:53.999Z,13.26
2023-10-25T00:33:21.988Z,13.23
2023-10-25T00:35:51.294Z,13.23
2023-10-25T00:38:19.260Z,13.20
2023-10-25T00:40:47.256Z,13.18
2023-10-25T00:43:23.822Z,13.15
2023-10-25T00:46:02.652Z,13.14
2023-10-25T00:48:31.948Z,13.12
2023-10-25T00:51:01.014Z,13.08
2023-10-25T00:53:32.423Z,13.06
2023-10-25T00:56:02.295Z,13.04
2023-10-25T00:58:32.072Z,13.03
2023-10-25T01:01:01.367Z,13.03
2023-10-25T01:03:29.519Z,13.04
2023-10-25T01:05:58.017Z,13.06
2023-10-25T01:08:26.744Z,13.08
2023-10-25T01:10:54.870Z,13.09
2023-10-25T01:13:23.200Z,13.09
2023-10-25T01:15:51.693Z,13.09
2023-10-25T01:18:20.087Z,13.07
2023-10-25T01:20:48.234Z,13.06
2023-10-25T01:23:16.441Z,13.06
2023-10-25T01:25:44.924Z,13.04
2023-10-25T01:28:13.462Z,13.02
2023-10-25T01:30:41.881Z,13.00
2023-10-25T01:33:10.080Z,12.99
2023-10-25T01:35:38.108Z,12.98
2023-10-25T01:38:06.280Z,12.96
2023-10-25T01:40:34.304Z,12.95
2023-10-25T01:43:02.323Z,12.94
2023-10-25T01:45:31.569Z,12.92
2023-10-25T01:47:59.577Z,12.94
2023-10-25T01:50:27.558Z,12.96
2023-10-25T01:52:55.519Z,12.97
2023-10-25T01:55:23.493Z,12.97
2023-10-25T01:57:51.599Z,12.94
2023-10-25T02:00:19.713Z,12.93
2023-10-25T02:02:48.166Z,12.92
2023-10-25T02:05:16.413Z,12.91
2023-10-25T02:07:45.332Z,12.90
2023-10-25T02:10:13.863Z,12.90
2023-10-25T02:12:41.908Z,12.90
2023-10-25T02:15:10.070Z,12.90
2023-10-25T02:17:38.371Z,12.90
2023-10-25T02:20:07.163Z,12.93
2023-10-25T02:22:35.201Z,12.95
2023-10-25T02:25:03.258Z,12.96
2023-10-25T02:27:31.394Z,12.97
2023-10-25T02:29:59.435Z,12.97
2023-10-25T02:32:27.484Z,12.98
2023-10-25T02:34:55.988Z,12.97
2023-10-25T02:37:23.939Z,12.96
2023-10-25T02:39:51.893Z,12.96
2023-10-25T02:42:19.989Z,12.96
2023-10-25T02:44:47.957Z,12.96
2023-10-25T02:47:15.974Z,12.98
2023-10-25T02:49:44.051Z,13.00
2023-10-25T02:52:12.268Z,13.02
2023-10-25T02:54:40.260Z,13.03
2023-10-25T02:57:08.493Z,13.05
2023-10-25T02:59:36.528Z,13.06
2023-10-25T03:02:05.433Z,13.07
2023-10-25T03:04:33.510Z,13.07
2023-10-25T03:07:01.560Z,13.07
2023-10-25T03:09:29.618Z,13.07
2023-10-25T03:11:59.304Z,13.06
2023-10-25T03:14:27.523Z,13.04
2023-10-25T03:16:55.668Z,13.03
2023-10-25T03:19:23.719Z,13.01
2023-10-25T03:21:51.688Z,13.00
2023-10-25T03:24:19.755Z,13.01
2023-10-25T03:26:47.731Z,13.01
2023-10-25T03:29:15.872Z,13.01
2023-10-25T03:31:44.000Z,13.01
2023-10-25T03:34:12.217Z,13.01
2023-10-25T03:36:40.357Z,13.02
2023-10-25T03:39:08.392Z,13.03
2023-10-25T03:41:36.347Z,13.04
2023-10-25T03:44:04.740Z,13.06
2023-10-25T03:46:32.760Z,13.06
2023-10-25T03:49:00.970Z,13.06
2023-10-25T03:51:29.168Z,13.07
2023-10-25T03:53:57.130Z,13.08
2023-10-25T03:56:25.126Z,13.09
2023-10-25T03:58:53.162Z,13.08
2023-10-25T04:01:21.230Z,13.08
2023-10-25T04:03:49.402Z,13.08
2023-10-25T04:06:17.488Z,13.07
2023-10-25T04:08:45.458Z,13.05
2023-10-25T04:11:13.690Z,13.01
2023-10-25T04:13:41.630Z,13.00
2023-10-25T04:16:10.733Z,12.99
2023-10-25T04:18:39.328Z,12.97
2023-10-25T04:21:12.250Z,12.97
2023-10-25T04:23:40.890Z,12.97
2023-10-25T04:26:14.916Z,12.97
2023-10-25T04:28:45.092Z,12.98
2023-10-25T04:31:13.824Z,12.99
2023-10-25T04:33:41.915Z,12.97
2023-10-25T04:36:10.072Z,12.96
2023-10-25T04:38:38.170Z,12.95
2023-10-25T04:41:06.429Z,12.95
2023-10-25T04:43:34.426Z,12.95
2023-10-25T04:46:04.637Z,12.95
2023-10-25T04:48:32.784Z,12.95
2023-10-25T04:51:04.101Z,12.94
2023-10-25T04:53:32.206Z,12.94
2023-10-25T04:56:01.027Z,12.96
2023-10-25T04:58:30.175Z,12.97
2023-10-25T05:00:58.271Z,12.97
2023-10-25T05:03:26.330Z,12.97
2023-10-25T05:05:56.314Z,12.97
2023-10-25T05:08:24.656Z,12.97
2023-10-25T05:10:53.354Z,12.96
2023-10-25T05:13:21.644Z,12.96
2023-10-25T05:15:50.076Z,12.96
2023-10-25T05:18:18.472Z,12.96
2023-10-25T05:20:46.632Z,12.94
2023-10-25T05:23:15.533Z,12.93
2023-10-25T05:25:44.782Z,12.93
2023-10-25T05:28:14.262Z,12.92
2023-10-25T05:30:42.661Z,12.92
2023-10-25T05:33:12.880Z,12.90
2023-10-25T05:35:41.490Z,12.91
2023-10-25T05:38:09.841Z,13.05
2023-10-25T05:40:38.219Z,13.12
2023-10-25T05:43:12.572Z,13.16
2023-10-25T05:45:41.198Z,13.20
2023-10-25T05:48:10.787Z,13.23
2023-10-25T05:50:39.192Z,13.26
2023-10-25T05:53:07.400Z,13.31
2023-10-25T05:55:35.828Z,13.38
2023-10-25T05:58:04.406Z,13.44
2023-10-25T06:00:32.845Z,13.50
2023-10-25T06:03:03.855Z,13.50
2023-10-25T06:05:35.508Z,13.46
2023-10-25T06:08:04.506Z,13.43
2023-10-25T06:10:33.064Z,13.41
2023-10-25T06:13:01.473Z,13.40
2023-10-25T06:15:29.552Z,13.37
2023-10-25T06:17:57.673Z,13.37
2023-10-25T06:20:25.707Z,13.33
2023-10-25T06:22:54.862Z,13.50
2023-10-25T06:25:22.844Z,13.76
2023-10-25T06:27:50.784Z,13.97
2023-10-25T06:30:18.887Z,14.04
2023-10-25T06:32:46.917Z,14.09
2023-10-25T06:35:15.026Z,14.23
2023-10-25T06:37:43.250Z,14.42
2023-10-25T06:40:11.665Z,14.56
2023-10-25T06:42:39.958Z,14.69
2023-10-25T06:45:09.680Z,14.78
2023-10-25T06:47:38.001Z,14.68
2023-10-25T06:50:06.859Z,14.60
2023-10-25T06:52:35.147Z,14.51
2023-10-25T06:55:03.597Z,14.45
2023-10-25T06:57:32.363Z,14.39
2023-10-25T07:00:01.076Z,14.32
2023-10-25T07:02:39.472Z,14.24
2023-10-25T07:05:14.800Z,14.20
2023-10-25T07:07:45.417Z,14.19
2023-10-25T07:10:14.339Z,14.22
2023-10-25T07:12:42.497Z,14.19
2023-10-25T07:15:12.574Z,14.09
2023-10-25T07:17:42.529Z,14.11
2023-10-25T07:20:11.422Z,14.37
2023-10-25T07:22:41.650Z,14.58
2023-10-25T07:25:10.288Z,14.68
2023-10-25T07:27:38.374Z,14.78
2023-10-25T07:30:06.993Z,14.92
2023-10-25T07:32:36.568Z,14.94
2023-10-25T07:35:05.167Z,14.96
2023-10-25T07:37:33.882Z,14.95
2023-10-25T07:40:06.501Z,14.98
2023-10-25T07:42:34.583Z,15.05
2023-10-25T07:45:02.664Z,15.12
2023-10-25T07:47:30.668Z,15.23
2023-10-25T07:49:58.658Z,15.28
2023-10-25T07:52:29.028Z,15.31
2023-10-25T07:54:57.235Z,15.32
2023-10-25T07:58:08.141Z,15.38
2023-10-25T08:00:15.782Z,15.56
2023-10-25T08:02:43.903Z,15.68
2023-10-25T08:05:11.978Z,15.73
2023-10-25T08:07:39.940Z,15.78
2023-10-25T08:10:08.620Z,15.80
2023-10-25T08:12:36.950Z,15.83
2023-10-25T08:15:06.420Z,15.91
2023-10-25T08:17:35.457Z,15.95
2023-10-25T08:20:04.537Z,15.92
2023-10-25T08:22:34.674Z,15.96
2023-10-25T08:25:02.708Z,15.99
2023-10-25T08:27:31.178Z,15.94
2023-10-25T08:29:59.291Z,15.92
2023-10-25T08:32:27.505Z,15.89
2023-10-25T08:34:55.704Z,15.89
2023-10-25T08:37:23.840Z,15.90
2023-10-25T08:39:51.847Z,15.89
2023-10-25T08:42:20.322Z,15.91
2023-10-25T08:44:49.058Z,15.89
2023-10-25T08:47:17.154Z,15.90
2023-10-25T08:49:45.486Z,15.92
2023-10-25T08:52:18.160Z,15.85
2023-10-25T08:54:46.267Z,15.78
2023-10-25T08:57:14.315Z,15.74
2023-10-25T08:59:47.911Z,15.70
2023-10-25T09:02:17.367Z,15.69
2023-10-25T09:05:00.009Z,15.70
2023-10-25T09:07:32.902Z,15.71
2023-10-25T09:10:00.952Z,15.75
2023-10-25T09:12:29.029Z,15.81
2023-10-25T09:14:57.580Z,15.90
2023-10-25T09:17:25.789Z,15.97
2023-10-25T09:19:53.841Z,15.99
2023-10-25T09:22:29.674Z,16.08
2023-10-25T09:25:01.980Z,16.24
2023-10-25T09:27:31.600Z,16.40
2023-10-25T09:30:26.274Z,16.61
2023-10-25T09:32:55.915Z,16.85
2023-10-25T09:35:24.302Z,17.01
2023-10-25T09:37:52.372Z,17.09
2023-10-25T09:40:20.759Z,17.09
2023-10-25T09:42:53.903Z,17.08
2023-10-25T09:45:27.437Z,17.10
2023-10-25T09:47:57.383Z,17.08
2023-10-25T09:50:33.666Z,17.17
2023-10-25T09:53:11.638Z,17.20
2023-10-25T09:55:46.805Z,17.08
2023-10-25T09:58:16.509Z,16.98
2023-10-25T10:00:44.779Z,16.91
2023-10-25T10:03:27.886Z,16.87
2023-10-25T10:06:06.594Z,16.80
2023-10-25T10:09:01.768Z,16.77
2023-10-25T10:11:39.182Z,16.85
2023-10-25T10:14:30.280Z,16.95
2023-10-25T10:17:10.408Z,16.92
2023-10-25T10:19:40.506Z,17.00
2023-10-25T10:22:11.486Z,17.23
2023-10-25T10:24:58.205Z,17.46
2023-10-25T10:27:27.546Z,17.67
2023-10-25T10:29:55.808Z,17.75
2023-10-25T10:32:28.827Z,17.80
2023-10-25T10:35:00.957Z,17.76
2023-10-25T10:37:30.862Z,17.67
2023-10-25T10:40:03.306Z,17.71
2023-10-25T10:42:37.258Z,17.71
2023-10-25T10:45:07.932Z,17.62
2023-10-25T10:47:54.131Z,17.54
2023-10-25T10:50:24.582Z,17.70
2023-10-25T10:52:53.860Z,17.96
2023-10-25T10:55:24.572Z,18.06
2023-10-25T11:00:27.103Z,18.25
2023-10-25T11:02:55.649Z,18.05
2023-10-25T11:05:24.634Z,17.81
2023-10-25T11:07:54.783Z,17.69
2023-10-25T11:10:22.991Z,17.62
2023-10-25T11:12:51.312Z,17.52
2023-10-25T11:15:20.959Z,17.47
2023-10-25T11:17:49.018Z,17.48
2023-10-25T11:20:17.029Z,17.35
2023-10-25T11:22:44.937Z,17.32
2023-10-25T11:25:21.895Z,17.42
2023-10-25T11:27:50.208Z,17.53
2023-10-25T11:30:19.016Z,17.54
2023-10-25T11:32:49.906Z,17.57
2023-10-25T11:35:29.252Z,17.63
2023-10-25T11:38:00.258Z,17.63
2023-10-25T11:40:43.820Z,17.63
2023-10-25T11:43:11.856Z,17.60
2023-10-25T11:45:41.565Z,17.42
2023-10-25T11:48:11.241Z,17.34
2023-10-25T11:50:44.738Z,17.27
2023-10-25T11:53:15.333Z,17.20
2023-10-25T11:55:43.569Z,17.11
2023-10-25T11:58:18.813Z,17.07
2023-10-25T12:00:46.788Z,17.05
2023-10-25T12:03:15.853Z,16.95
2023-10-25T12:05:44.589Z,16.82
2023-10-25T12:08:12.622Z,16.67
2023-10-25T12:10:40.659Z,16.43
2023-10-25T12:13:08.641Z,16.25
2023-10-25T12:15:36.685Z,16.22
2023-10-25T12:18:04.746Z,16.26
2023-10-25T12:20:34.268Z,16.31
2023-10-25T12:23:03.147Z,16.31
2023-10-25T12:25:31.921Z,16.38
2023-10-25T12:27:59.972Z,16.40
2023-10-25T12:30:28.015Z,16.41
2023-10-25T12:32:56.322Z,16.42
2023-10-25T12:35:24.459Z,16.45
2023-10-25T12:37:52.576Z,16.28
2023-10-25T12:40:20.821Z,16.17
2023-10-25T12:42:49.818Z,16.11
2023-10-25T12:45:18.689Z,16.08
2023-10-25T12:47:46.701Z,16.01
2023-10-25T12:50:14.832Z,15.95
2023-10-25T12:52:43.080Z,16.17
2023-10-25T12:55:12.516Z,16.38
2023-10-25T12:57:41.056Z,16.40
2023-10-25T13:00:12.285Z,16.31
2023-10-25T13:02:41.020Z,16.17
2023-10-25T13:05:09.344Z,16.15
2023-10-25T13:07:37.307Z,16.23
2023-10-25T13:10:05.990Z,16.26
2023-10-25T13:12:36.585Z,16.20
2023-10-25T13:15:06.307Z,16.11
2023-10-25T13:17:34.728Z,15.98
2023-10-25T13:20:03.902Z,15.88
2023-10-25T13:22:32.481Z,15.88
2023-10-25T13:25:00.752Z,15.89
2023-10-25T13:27:28.866Z,15.86
2023-10-25T13:29:57.306Z,15.82
2023-10-25T13:32:28.526Z,15.77
2023-10-25T13:34:57.167Z,15.73
2023-10-25T13:37:25.441Z,15.65
2023-10-25T13:39:54.207Z,15.47
2023-10-25T13:42:23.572Z,15.33
2023-10-25T13:44:51.796Z,15.23
2023-10-25T13:47:19.769Z,15.11
2023-10-25T13:49:47.788Z,14.97
2023-10-25T13:52:16.599Z,14.88
2023-10-25T13:54:45.029Z,14.80
2023-10-25T13:57:13.164Z,14.73
2023-10-25T13:59:41.847Z,14.72
2023-10-25T14:02:10.976Z,14.74
2023-10-25T14:04:39.631Z,14.73
2023-10-25T14:07:07.642Z,14.72
2023-10-25T14:09:37.951Z,14.73
2023-10-25T14:12:07.233Z,14.71
2023-10-25T14:14:35.756Z,14.65
2023-10-25T14:17:03.942Z,14.58
2023-10-25T14:19:31.916Z,14.52
2023-10-25T14:21:59.966Z,14.49
2023-10-25T14:24:33.668Z,14.41
2023-10-25T14:27:05.200Z,14.33
2023-10-25T14:29:33.523Z,14.27
2023-10-25T14:32:03.544Z,14.24
2023-10-25T14:34:31.920Z,14.20
2023-10-25T14:37:00.558Z,14.16
2023-10-25T14:39:28.605Z,14.14
2023-10-25T14:41:56.668Z,14.13
2023-10-25T14:44:24.797Z,14.12
2023-10-25T14:46:54.044Z,14.14
2023-10-25T14:49:22.015Z,14.15
2023-10-25T14:51:50.659Z,14.15
2023-10-25T14:54:18.673Z,14.12
2023-10-25T14:56:46.735Z,14.12
2023-10-25T14:59:14.696Z,14.14
2023-10-25T15:01:44.814Z,14.10
2023-10-25T15:04:13.111Z,14.05
2023-10-25T15:06:41.302Z,13.98
2023-10-25T15:09:09.270Z,13.90
2023-10-25T15:11:37.329Z,13.85
2023-10-25T15:14:05.357Z,13.82
2023-10-25T15:16:35.403Z,13.77
2023-10-25T15:19:03.845Z,13.72
2023-10-25T15:21:31.878Z,13.68
2023-10-25T15:24:00.149Z,13.62
2023-10-25T15:26:28.185Z,13.56
2023-10-25T15:28:56.541Z,13.52
2023-10-25T15:31:24.589Z,13.48
2023-10-25T15:33:53.319Z,13.43
2023-10-25T15:36:21.378Z,13.39
2023-10-25T15:38:56.219Z,13.32
2023-10-25T15:41:28.107Z,13.26
2023-10-25T15:43:56.162Z,13.20
2023-10-25T15:46:28.379Z,13.13
2023-10-25T15:48:58.348Z,13.06
2023-10-25T15:51:27.206Z,12.99
2023-10-25T15:53:57.056Z,12.91
2023-10-25T15:56:25.411Z,12.85
2023-10-25T15:58:53.385Z,12.78
2023-10-25T16:01:31.528Z,12.68
2023-10-25T16:04:02.144Z,12.59
2023-10-25T16:06:33.230Z,12.51
2023-10-25T16:09:01.636Z,12.43
2023-10-25T16:11:31.159Z,12.35
2023-10-25T16:13:59.154Z,12.26
2023-10-25T16:16:29.706Z,12.15
2023-10-25T16:18:57.796Z,12.05
2023-10-25T16:21:25.745Z,11.96
2023-10-25T16:23:53.860Z,11.88
2023-10-25T16:26:21.910Z,11.81
2023-10-25T16:28:51.064Z,11.75
2023-10-25T16:31:20.103Z,11.67
2023-10-25T16:33:49.944Z,11.61
2023-10-25T16:36:17.915Z,11.54
2023-10-25T16:38:45.946Z,11.46
2023-10-25T16:41:14.173Z,11.39
2023-10-25T16:43:42.151Z,11.31
2023-10-25T16:46:13.136Z,11.23
2023-10-25T16:48:43.392Z,11.15
2023-10-25T16:51:21.580Z,11.08
2023-10-25T16:53:51.239Z,11.03
2023-10-25T16:56:23.566Z,10.98
2023-10-25T16:58:51.765Z,10.92
2023-10-25T17:01:19.686Z,10.85
2023-10-25T17:03:47.817Z,10.79
2023-10-25T17:06:16.772Z,10.75
2023-10-25T17:08:45.195Z,10.71
2023-10-25T17:11:14.171Z,10.67
2023-10-25T17:13:42.399Z,10.62
2023-10-25T17:16:10.702Z,10.56
2023-10-25T17:18:40.825Z,10.49
2023-10-25T17:21:17.162Z,10.43
2023-10-25T17:23:47.699Z,10.39
2023-10-25T17:26:15.816Z,10.35
2023-10-25T17:28:43.789Z,10.32
2023-10-25T17:31:12.136Z,10.29
2023-10-25T17:33:40.194Z,10.23
2023-10-25T17:36:09.233Z,10.14
2023-10-25T17:38:37.607Z,10.08
2023-10-25T17:41:06.061Z,10.05
2023-10-25T17:43:34.139Z,10.01
2023-10-25T17:48:33.398Z,9.94
2023-10-25T17:51:10.288Z,9.90
2023-10-25T17:53:38.967Z,9.87
2023-10-25T17:56:07.506Z,9.81
2023-10-25T17:58:35.464Z,9.76
2023-10-25T18:01:03.596Z,9.71
2023-10-25T18:03:32.038Z,9.67
2023-10-25T18:06:06.575Z,9.64
2023-10-25T18:08:36.213Z,9.61
2023-10-25T18:11:07.139Z,9.59
2023-10-25T18:13:38.140Z,9.55
2023-10-25T18:16:12.298Z,9.51
2023-10-25T18:18:40.625Z,9.48
2023-10-25T18:21:08.732Z,9.48
2023-10-25T18:23:36.794Z,9.45
2023-10-25T18:26:05.135Z,9.43
2023-10-25T18:28:33.129Z,9.41
2023-10-25T18:31:58.668Z,9.38
2023-10-25T18:33:53.265Z,9.34
2023-10-25T18:36:21.645Z,9.31
2023-10-25T18:38:49.688Z,9.30
2023-10-25T18:41:17.662Z,9.30
2023-10-25T18:43:45.592Z,9.31
2023-10-25T18:46:13.629Z,9.31
2023-10-25T18:48:41.613Z,9.31
2023-10-25T18:51:14.180Z,9.32
2023-10-25T18:53:43.273Z,9.34
2023-10-25T18:56:11.263Z,9.37
2023-10-25T18:58:39.651Z,9.41
2023-10-25T19:01:13.412Z,9.44
2023-10-25T19:03:42.365Z,9.46
2023-10-25T19:06:24.005Z,9.49
2023-10-25T19:08:59.670Z,9.52
2023-10-25T19:11:29.033Z,9.56
2023-10-25T19:13:58.202Z,9.58
2023-10-25T19:16:27.264Z,9.61
2023-10-25T19:18:56.056Z,9.64
2023-10-25T19:21:24.494Z,9.67
2023-10-25T19:23:59.020Z,9.72
2023-10-25T19:26:33.845Z,9.78
2023-10-25T19:29:14.643Z,9.81
2023-10-25T19:31:42.564Z,9.83
2023-10-25T19:34:10.518Z,9.85
2023-10-25T19:36:38.575Z,9.89
2023-10-25T19:39:08.524Z,9.92
2023-10-25T19:41:36.641Z,9.93
2023-10-25T19:44:09.011Z,9.95
2023-10-25T19:46:37.722Z,9.98
2023-10-25T19:49:06.699Z,9.98
2023-10-25T19:51:39.271Z,9.97
2023-10-25T19:54:07.533Z,9.97
2023-10-25T19:56:36.494Z,9.97
2023-10-25T19:59:05.213Z,9.96
2023-10-25T20:01:33.395Z,9.98
2023-10-25T20:04:02.299Z,10.00
2023-10-25T20:06:30.447Z,10.03
2023-10-25T20:09:00.052Z,10.06
2023-10-25T20:11:28.359Z,10.09
2023-10-25T20:13:57.484Z,10.11
2023-10-25T20:16:25.699Z,10.11
2023-10-25T20:18:57.069Z,10.11
2023-10-25T20:21:25.003Z,10.10
2023-10-25T20:23:57.614Z,10.09
2023-10-25T20:26:33.453Z,10.05
2023-10-25T20:29:04.400Z,10.01
2023-10-25T20:31:32.673Z,9.96
2023-10-25T20:34:00.724Z,9.92
2023-10-25T20:36:28.756Z,9.89
2023-10-25T20:38:57.824Z,9.88
2023-10-25T20:41:27.846Z,9.88
2023-10-25T20:43:56.014Z,9.88
2023-10-25T20:46:24.399Z,9.86
2023-10-25T20:48:53.635Z,9.85
2023-10-25T20:51:24.279Z,9.87
2023-10-25T20:53:53.637Z,9.87
2023-10-25T20:56:21.914Z,9.86
2023-10-25T20:58:50.088Z,9.87
2023-10-25T21:01:18.583Z,9.88
2023-10-25T21:03:47.344Z,9.89
2023-10-25T21:06:15.729Z,9.89
2023-10-25T21:08:44.361Z,9.90
2023-10-25T21:11:12.863Z,9.92
2023-10-25T21:13:40.968Z,9.94
2023-10-25T21:16:13.598Z,9.96
2023-10-25T21:18:41.802Z,9.99
2023-10-25T21:21:10.033Z,10.01
2023-10-25T21:23:41.858Z,10.04
2023-10-25T21:26:11.681Z,10.05
2023-10-25T21:28:39.850Z,10.08
2023-10-25T21:31:09.499Z,10.12
2023-10-25T21:33:38.563Z,10.15
2023-10-25T21:36:08.783Z,10.20
2023-10-25T21:38:37.397Z,10.24
2023-10-25T21:41:07.239Z,10.27
2023-10-25T21:43:35.971Z,10.32
2023-10-25T21:46:04.204Z,10.38
2023-10-25T21:48:32.519Z,10.45
2023-10-25T21:51:02.603Z,10.50
2023-10-25T21:53:31.096Z,10.49
2023-10-25T21:56:22.798Z,10.48
2023-10-25T21:59:49.253Z,10.50
2023-10-25T22:01:35.373Z,10.50
2023-10-25T22:04:04.157Z,10.55
2023-10-25T22:06:32.918Z,10.58
2023-10-25T22:09:01.082Z,10.60
2023-10-25T22:11:29.305Z,10.64
2023-10-25T22:13:57.321Z,10.69
2023-10-25T22:16:25.357Z,10.73
2023-10-25T22:18:53.494Z,10.74
2023-10-25T22:21:21.682Z,10.78
2023-10-25T22:23:49.708Z,10.81
2023-10-25T22:26:17.895Z,10.84
2023-10-25T22:28:45.838Z,10.87
2023-10-25T22:31:14.093Z,10.87
2023-10-25T22:33:42.263Z,10.88
2023-10-25T22:36:13.155Z,10.91
2023-10-25T22:38:41.118Z,10.92
2023-10-25T22:43:44.605Z,10.91
2023-10-25T22:46:12.647Z,10.92
2023-10-25T22:48:40.772Z,10.93
2023-10-25T22:51:09.433Z,10.94
2023-10-25T22:53:37.398Z,10.95
2023-10-25T22:56:06.106Z,10.95
2023-10-25T22:58:34.015Z,10.96
2023-10-25T23:01:02.087Z,10.97
2023-10-25T23:03:30.432Z,10.95
2023-10-25T23:06:00.713Z,10.94
2023-10-25T23:08:28.754Z,10.95
2023-10-25T23:10:56.719Z,10.95
2023-10-25T23:13:24.701Z,10.94
2023-10-25T23:15:52.721Z,10.94
2023-10-25T23:18:20.809Z,10.92
2023-10-25T23:20:50.622Z,10.92
2023-10-25T23:23:19.076Z,10.96
2023-10-25T23:25:46.999Z,10.98
2023-10-25T23:28:15.010Z,10.99
2023-10-25T23:30:42.986Z,11.02
2023-10-25T23:33:10.985Z,11.02
2023-10-25T23:35:38.986Z,11.03
2023-10-25T23:38:06.941Z,11.05
2023-10-25T23:40:34.868Z,11.07
2023-10-25T23:43:02.928Z,11.06
2023-10-25T23:45:30.887Z,11.08
2023-10-25T23:47:58.999Z,11.07
2023-10-25T23:50:27.054Z,11.08
2023-10-25T23:52:54.936Z,11.09
2023-10-25T23:55:22.967Z,11.09
2023-10-25T23:57:51.072Z,11.11
